Time;durP1;ratioP1;P1;durP2;ratioP2;P2;SDS_P1;SDS_P2;PMS_P1;PMS_P2;Temp;Humidity;BMP_temperature;BMP_pressure;BME280_temperature;BME280_humidity;BME280_pressure;Samples;Min_cycle;Max_cycle;Signal;HPM_P1;HPM_P2
2022/08/21 00:00:10;;;;;;;3.95;2.10;;;19.50;93.20;;;;;;4987362;28;20176;-70
2022/08/21 00:02:36;;;;;;;3.78;2.40;;;19.50;93.60;;;;;;4992657;28;20188;-70
2022/08/21 00:05:03;;;;;;;3.95;2.47;;;19.50;93.50;;;;;;4974824;28;20234;-70
2022/08/21 00:07:29;;;;;;;4.10;1.88;;;19.40;93.60;;;;;;4975670;28;20207;-70
2022/08/21 00:09:54;;;;;;;5.28;2.35;;;19.40;93.70;;;;;;4975433;28;20184;-70
2022/08/21 00:12:21;;;;;;;4.88;2.40;;;19.40;94.00;;;;;;4991831;28;20303;-70
2022/08/21 00:14:46;;;;;;;5.07;2.60;;;19.40;94.10;;;;;;4976655;28;20176;-70
2022/08/21 00:17:15;;;;;;;6.13;2.88;;;19.40;94.30;;;;;;4975432;28;20187;-70
2022/08/21 00:19:41;;;;;;;4.13;2.30;;;19.40;94.60;;;;;;4968166;28;20207;-70
2022/08/21 00:22:07;;;;;;;3.53;2.38;;;19.40;94.90;;;;;;4988663;28;20188;-70
2022/08/21 00:24:33;;;;;;;4.72;2.47;;;19.40;95.00;;;;;;4990245;28;20180;-70
2022/08/21 00:27:01;;;;;;;5.70;2.50;;;19.40;95.10;;;;;;4991039;28;20278;-70
2022/08/21 00:29:26;;;;;;;4.93;2.30;;;19.40;95.40;;;;;;4992394;28;20203;-70
2022/08/21 00:31:55;;;;;;;5.57;2.35;;;19.40;95.20;;;;;;4976972;28;20180;-72
2022/08/21 00:34:20;;;;;;;3.38;2.50;;;19.50;95.60;;;;;;4976061;28;20180;-70
2022/08/21 00:36:46;;;;;;;3.95;2.33;;;19.40;95.40;;;;;;4976179;28;20230;-70
2022/08/21 00:39:11;;;;;;;3.38;1.88;;;19.40;95.70;;;;;;4975496;28;20245;-70
2022/08/21 00:41:38;;;;;;;6.38;2.40;;;19.40;95.80;;;;;;4965125;28;20176;-71
2022/08/21 00:44:07;;;;;;;5.90;2.20;;;19.40;96.10;;;;;;4972663;28;20201;-70
2022/08/21 00:46:33;;;;;;;3.65;2.10;;;19.40;96.20;;;;;;4991478;28;20254;-70
2022/08/21 00:49:03;;;;;;;3.45;2.00;;;19.40;96.20;;;;;;4980652;28;20187;-70
2022/08/21 00:51:47;;;;;;;3.63;2.10;;;19.30;96.30;;;;;;4984697;28;20210;-70
2022/08/21 00:54:16;;;;;;;4.05;2.35;;;19.30;97.00;;;;;;4977066;28;20504;-71
2022/08/21 00:56:42;;;;;;;4.88;2.45;;;19.30;96.70;;;;;;4974762;28;20191;-70
2022/08/21 00:59:08;;;;;;;3.47;2.25;;;19.30;96.90;;;;;;4966989;28;20199;-71
2022/08/21 01:01:37;;;;;;;3.83;2.28;;;19.30;97.10;;;;;;4976508;28;20187;-71
2022/08/21 01:04:05;;;;;;;2.55;2.13;;;19.30;97.50;;;;;;4974683;28;20233;-70
2022/08/21 01:06:31;;;;;;;4.90;2.60;;;19.30;97.80;;;;;;4970835;28;20203;-71
2022/08/21 01:08:57;;;;;;;6.00;2.30;;;19.30;97.60;;;;;;4970958;28;20184;-70
2022/08/21 01:11:22;;;;;;;5.32;1.95;;;19.20;97.60;;;;;;4974004;28;20180;-70
2022/08/21 01:13:51;;;;;;;4.88;2.40;;;19.20;97.80;;;;;;4970942;28;20214;-70
2022/08/21 01:16:20;;;;;;;4.05;1.90;;;19.20;97.90;;;;;;4971744;28;20186;-70
2022/08/21 01:18:49;;;;;;;3.88;2.10;;;19.20;98.20;;;;;;4990226;28;20184;-71
2022/08/21 01:21:19;;;;;;;2.70;1.88;;;19.20;98.50;;;;;;4976437;28;20184;-71
2022/08/21 01:23:49;;;;;;;4.13;2.20;;;19.20;98.70;;;;;;4968691;28;20171;-71
2022/08/21 01:26:19;;;;;;;4.03;2.25;;;19.10;98.60;;;;;;4975459;28;20224;-72
2022/08/21 01:29:07;;;;;;;3.58;1.92;;;19.10;98.70;;;;;;4991482;28;20262;-71
2022/08/21 01:31:33;;;;;;;4.25;2.35;;;19.10;99.60;;;;;;4983535;28;20246;-71
2022/08/21 01:33:59;;;;;;;5.32;2.50;;;19.10;98.90;;;;;;4974774;28;20176;-70
2022/08/21 01:36:26;;;;;;;3.50;2.13;;;19.00;99.10;;;;;;4971481;28;20239;-71
2022/08/21 01:38:52;;;;;;;3.80;2.03;;;19.00;99.30;;;;;;4970555;28;20211;-71
2022/08/21 01:41:19;;;;;;;4.45;2.40;;;19.00;99.30;;;;;;4968026;28;20247;-73
2022/08/21 01:43:45;;;;;;;4.45;2.40;;;19.00;99.50;;;;;;4966492;28;20176;-71
2022/08/21 01:46:12;;;;;;;3.92;2.25;;;19.00;99.70;;;;;;4966324;28;20206;-71
2022/08/21 01:48:40;;;;;;;3.30;2.40;;;18.90;99.80;;;;;;4976284;28;20239;-72
2022/08/21 01:51:08;;;;;;;4.20;2.40;;;18.90;99.90;;;;;;4980811;28;20188;-72
2022/08/21 01:53:36;;;;;;;4.20;2.22;;;18.90;99.90;;;;;;4997197;28;20218;-71
2022/08/21 01:56:06;;;;;;;3.78;2.15;;;18.90;99.90;;;;;;4974219;28;20192;-71
2022/08/21 01:58:34;;;;;;;3.65;2.20;;;18.90;99.90;;;;;;4991214;28;20233;-72
2022/08/21 02:01:01;;;;;;;3.47;2.10;;;18.90;99.90;;;;;;4984801;28;20276;-71
2022/08/21 02:03:29;;;;;;;7.18;3.80;;;18.80;99.90;;;;;;4974824;28;20303;-72
2022/08/21 02:05:55;;;;;;;5.05;3.15;;;18.80;99.90;;;;;;4964885;28;20265;-71
2022/08/21 02:08:24;;;;;;;5.70;3.75;;;18.80;99.90;;;;;;4978645;28;20176;-71
2022/08/21 02:10:51;;;;;;;6.03;4.13;;;18.70;99.90;;;;;;4972849;28;20199;-72
2022/08/21 02:13:20;;;;;;;4.90;3.38;;;18.70;99.90;;;;;;4976614;28;20202;-73
2022/08/21 02:15:46;;;;;;;5.13;3.00;;;18.70;99.90;;;;;;4972116;28;20176;-71
2022/08/21 02:18:14;;;;;;;5.60;3.60;;;18.60;99.90;;;;;;4965837;28;20187;-71
2022/08/21 02:20:44;;;;;;;3.72;2.92;;;18.60;99.90;;;;;;4972343;28;20181;-71
2022/08/21 02:23:13;;;;;;;5.82;3.28;;;18.50;99.90;;;;;;4974897;28;20185;-72
2022/08/21 02:25:41;;;;;;;4.40;2.92;;;18.50;99.90;;;;;;4971609;28;20764;-72
2022/08/21 02:28:12;;;;;;;5.40;2.70;;;18.50;99.90;;;;;;4974595;28;20200;-72
2022/08/21 02:30:47;;;;;;;3.47;2.45;;;18.40;99.90;;;;;;4983814;28;20216;-71
2022/08/21 02:33:16;;;;;;;5.22;2.63;;;18.40;99.90;;;;;;4977179;28;20178;-71
2022/08/21 02:35:46;;;;;;;5.03;2.65;;;18.40;99.90;;;;;;4974930;28;20243;-71
2022/08/21 02:38:15;;;;;;;5.05;2.50;;;18.30;99.90;;;;;;4971174;28;20192;-71
2022/08/21 02:40:43;;;;;;;3.60;2.47;;;18.30;99.90;;;;;;4988481;28;20181;-71
2022/08/21 02:43:09;;;;;;;4.28;2.20;;;18.20;99.90;;;;;;4993879;28;20208;-71
2022/08/21 02:45:37;;;;;;;5.13;2.08;;;18.20;99.90;;;;;;4970084;28;20215;-71
2022/08/21 02:48:05;;;;;;;4.10;2.40;;;18.20;99.90;;;;;;4966062;28;20185;-71
2022/08/21 02:50:35;;;;;;;4.13;2.38;;;18.20;99.90;;;;;;4973865;28;20187;-71
2022/08/21 02:53:04;;;;;;;3.45;2.00;;;18.20;99.90;;;;;;4992569;28;20330;-71
2022/08/21 02:55:31;;;;;;;3.45;2.03;;;18.20;99.90;;;;;;4994411;28;20184;-71
2022/08/21 02:58:00;;;;;;;3.08;1.65;;;18.20;99.90;;;;;;4994770;28;20191;-71
2022/08/21 03:00:30;;;;;;;4.85;2.15;;;18.20;99.90;;;;;;4979216;28;20267;-71
2022/08/21 03:02:57;;;;;;;4.45;1.95;;;18.10;99.90;;;;;;4977471;28;20179;-72
2022/08/21 03:05:25;;;;;;;5.22;2.30;;;18.10;99.90;;;;;;4969055;28;20430;-71
2022/08/21 03:07:52;;;;;;;3.92;2.00;;;18.10;99.90;;;;;;4982187;28;20215;-71
2022/08/21 03:10:21;;;;;;;3.85;2.20;;;18.10;99.90;;;;;;4977922;28;20466;-70
2022/08/21 03:12:47;;;;;;;7.75;2.30;;;18.10;99.90;;;;;;4975324;28;20203;-71
2022/08/21 03:15:18;;;;;;;3.25;2.33;;;18.00;99.90;;;;;;4986738;28;20212;-71
2022/08/21 03:17:47;;;;;;;4.38;2.20;;;18.00;99.90;;;;;;4977931;28;20205;-71
2022/08/21 03:20:16;;;;;;;4.60;2.40;;;18.00;99.90;;;;;;4975969;28;20189;-71
2022/08/21 03:22:46;;;;;;;6.15;2.72;;;18.00;99.90;;;;;;4976932;28;20180;-71
2022/08/21 03:25:12;;;;;;;3.50;2.05;;;17.90;99.90;;;;;;4989646;28;20199;-71
2022/08/21 03:27:40;;;;;;;4.38;2.38;;;17.90;99.90;;;;;;4977541;28;20223;-71
2022/08/21 03:30:07;;;;;;;3.85;2.28;;;17.90;99.90;;;;;;4975850;28;20449;-71
2022/08/21 03:32:34;;;;;;;3.70;2.25;;;17.90;99.90;;;;;;4976475;28;20204;-71
2022/08/21 03:35:00;;;;;;;4.55;2.40;;;17.90;99.90;;;;;;4981236;28;20231;-71
2022/08/21 03:37:26;;;;;;;3.97;2.17;;;17.80;99.90;;;;;;4969366;28;20275;-70
2022/08/21 03:39:52;;;;;;;3.38;1.92;;;17.80;99.90;;;;;;4982015;28;20291;-71
2022/08/21 03:42:20;;;;;;;5.38;2.42;;;17.80;99.90;;;;;;4976450;28;20206;-71
2022/08/21 03:44:46;;;;;;;3.70;2.30;;;17.80;99.90;;;;;;4993100;28;20255;-71
2022/08/21 03:47:11;;;;;;;2.92;2.13;;;17.80;99.90;;;;;;4975314;28;20207;-71
2022/08/21 03:49:42;;;;;;;4.35;2.00;;;17.80;99.90;;;;;;4992774;28;20175;-72
2022/08/21 03:52:08;;;;;;;3.40;2.25;;;17.70;99.90;;;;;;4973724;28;20180;-71
2022/08/21 03:54:34;;;;;;;3.85;2.00;;;17.70;99.90;;;;;;4974361;28;20195;-72
2022/08/21 03:57:02;;;;;;;3.53;2.28;;;17.70;99.90;;;;;;4970799;28;20196;-71
2022/08/21 03:59:32;;;;;;;4.65;2.40;;;17.70;99.90;;;;;;4973960;28;20263;-71
2022/08/21 04:02:03;;;;;;;5.85;2.20;;;17.70;99.90;;;;;;4981446;28;20283;-71
2022/08/21 04:04:29;;;;;;;5.65;4.05;;;17.70;99.90;;;;;;4976691;28;20188;-71
2022/08/21 04:06:56;;;;;;;8.55;5.82;;;17.60;99.90;;;;;;4974470;28;20379;-71
2022/08/21 04:09:25;;;;;;;6.05;4.18;;;17.60;99.90;;;;;;4979672;28;20295;-71
2022/08/21 04:11:50;;;;;;;5.90;3.63;;;17.60;99.90;;;;;;4989116;28;20259;-70
2022/08/21 04:14:17;;;;;;;5.53;3.15;;;17.60;99.90;;;;;;4982003;28;20183;-70
2022/08/21 04:16:43;;;;;;;5.65;3.35;;;17.60;99.90;;;;;;4975727;28;20271;-70
2022/08/21 04:19:10;;;;;;;5.60;3.30;;;17.60;99.90;;;;;;4988876;28;20255;-69
2022/08/21 04:21:37;;;;;;;5.68;3.70;;;17.60;99.90;;;;;;4969334;28;20187;-69
2022/08/21 04:24:04;;;;;;;4.88;2.97;;;17.60;99.90;;;;;;4992190;28;20172;-69
2022/08/21 04:26:33;;;;;;;4.93;3.80;;;17.60;99.90;;;;;;4969320;28;20274;-70
2022/08/21 04:29:01;;;;;;;4.40;3.13;;;17.60;99.90;;;;;;4976513;28;20232;-70
2022/08/21 04:31:27;;;;;;;3.80;2.72;;;17.60;99.90;;;;;;4976575;28;20188;-70
2022/08/21 04:33:53;;;;;;;4.75;2.60;;;17.50;99.90;;;;;;4993115;28;20199;-70
2022/08/21 04:36:19;;;;;;;4.32;2.58;;;17.50;99.90;;;;;;4992356;28;20204;-70
2022/08/21 04:38:49;;;;;;;2.88;2.30;;;17.50;99.90;;;;;;4992338;28;20180;-71
2022/08/21 04:41:14;;;;;;;4.30;2.30;;;17.50;99.90;;;;;;4991777;28;20258;-70
2022/08/21 04:43:43;;;;;;;3.08;2.25;;;17.50;99.90;;;;;;4990455;28;20312;-70
2022/08/21 04:46:08;;;;;;;3.80;2.40;;;17.50;99.90;;;;;;4989440;28;20172;-70
2022/08/21 04:48:34;;;;;;;4.90;2.30;;;17.40;99.90;;;;;;4973118;28;20210;-68
2022/08/21 04:51:07;;;;;;;4.13;2.50;;;17.40;99.90;;;;;;4989393;28;20181;-70
2022/08/21 04:54:00;;;;;;;4.28;2.38;;;17.40;99.90;;;;;;4991095;28;20508;-70
2022/08/21 04:56:38;;;;;;;4.70;2.30;;;17.40;99.90;;;;;;4984081;28;20555;-70
2022/08/21 04:59:12;;;;;;;3.47;2.28;;;17.40;99.90;;;;;;4991261;28;20176;-70
2022/08/21 05:01:43;;;;;;;4.47;2.40;;;17.40;99.90;;;;;;4969020;28;20172;-70
2022/08/21 05:04:12;;;;;;;4.22;2.40;;;17.40;99.90;;;;;;4991117;28;20176;-70
2022/08/21 05:06:41;;;;;;;3.67;2.00;;;17.40;99.90;;;;;;4973597;28;20179;-68
2022/08/21 05:09:09;;;;;;;3.80;2.30;;;17.40;99.90;;;;;;4975509;28;20191;-70
2022/08/21 05:11:35;;;;;;;4.13;2.35;;;17.40;99.90;;;;;;4985631;28;20206;-70
2022/08/21 05:14:00;;;;;;;4.45;2.33;;;17.40;99.90;;;;;;4984807;28;20204;-70
2022/08/21 05:16:26;;;;;;;4.18;2.13;;;17.40;99.90;;;;;;4973562;28;20211;-71
2022/08/21 05:18:54;;;;;;;6.90;2.50;;;17.40;99.90;;;;;;4975704;28;20191;-70
2022/08/21 05:21:20;;;;;;;4.10;2.63;;;17.40;99.90;;;;;;4974128;28;24182;-70
2022/08/21 05:23:46;;;;;;;3.60;2.38;;;17.40;99.90;;;;;;4976120;28;20171;-71
2022/08/21 05:26:14;;;;;;;6.93;2.72;;;17.50;99.90;;;;;;4969861;28;20180;-70
2022/08/21 05:28:42;;;;;;;5.45;3.20;;;17.50;99.90;;;;;;4975044;28;20187;-70
2022/08/21 05:31:08;;;;;;;5.35;2.50;;;17.50;99.90;;;;;;4975953;28;20184;-71
2022/08/21 05:33:33;;;;;;;4.45;2.70;;;17.50;99.90;;;;;;4972825;28;20186;-71
2022/08/21 05:35:59;;;;;;;3.47;2.58;;;17.50;99.90;;;;;;4975008;28;20176;-70
2022/08/21 05:38:28;;;;;;;4.18;2.45;;;17.60;99.90;;;;;;4988389;28;20263;-70
2022/08/21 05:40:53;;;;;;;3.55;2.65;;;17.60;99.90;;;;;;4995968;28;20211;-71
2022/08/21 05:43:22;;;;;;;4.25;2.25;;;17.60;99.90;;;;;;4974819;28;20172;-69
2022/08/21 05:45:48;;;;;;;5.95;2.40;;;17.60;99.90;;;;;;4968032;28;20212;-70
2022/08/21 05:48:17;;;;;;;4.20;2.42;;;17.70;99.90;;;;;;4977772;28;20179;-68
2022/08/21 05:50:47;;;;;;;5.45;2.70;;;17.70;99.90;;;;;;4971653;28;20187;-71
2022/08/21 05:53:14;;;;;;;5.15;3.20;;;17.70;99.90;;;;;;4992439;28;20171;-70
2022/08/21 05:55:41;;;;;;;4.32;2.70;;;17.70;99.90;;;;;;4970458;28;20246;-69
2022/08/21 05:58:06;;;;;;;3.95;2.42;;;17.70;99.90;;;;;;4990628;28;20192;-71
2022/08/21 06:00:34;;;;;;;5.13;2.80;;;17.80;99.90;;;;;;4974201;28;20168;-67
2022/08/21 06:03:03;;;;;;;4.03;2.65;;;17.80;99.90;;;;;;4972793;28;20267;-67
2022/08/21 06:05:31;;;;;;;4.68;2.42;;;17.80;99.90;;;;;;4974812;28;20241;-67
2022/08/21 06:07:56;;;;;;;5.15;2.55;;;17.80;99.90;;;;;;4971009;28;20204;-67
2022/08/21 06:10:22;;;;;;;6.00;2.53;;;17.90;99.90;;;;;;4963898;28;20242;-67
2022/08/21 06:12:55;;;;;;;8.38;2.78;;;17.90;99.90;;;;;;4972916;28;20207;-66
2022/08/21 06:15:21;;;;;;;4.53;2.42;;;17.90;99.90;;;;;;4986423;28;20201;-66
2022/08/21 06:17:46;;;;;;;7.03;2.95;;;17.90;99.90;;;;;;4974663;28;20206;-67
2022/08/21 06:20:12;;;;;;;4.30;2.80;;;18.00;99.90;;;;;;4971166;28;20183;-67
2022/08/21 06:22:40;;;;;;;4.57;2.60;;;18.00;99.90;;;;;;4971473;28;20211;-66
2022/08/21 06:25:06;;;;;;;4.00;2.40;;;18.00;99.90;;;;;;4988442;28;20172;-66
2022/08/21 06:27:31;;;;;;;5.03;2.72;;;18.10;99.90;;;;;;4973768;28;20188;-67
2022/08/21 06:29:59;;;;;;;5.07;3.08;;;18.10;99.90;;;;;;4981307;28;20207;-66
2022/08/21 06:32:25;;;;;;;5.18;2.88;;;18.20;99.90;;;;;;4971507;28;20180;-67
2022/08/21 06:34:53;;;;;;;5.88;2.65;;;18.30;99.90;;;;;;4975267;28;20436;-67
2022/08/21 06:37:19;;;;;;;5.43;2.50;;;18.30;99.90;;;;;;4961869;28;20196;-66
2022/08/21 06:39:45;;;;;;;4.20;2.45;;;18.40;99.90;;;;;;4974655;28;20191;-67
2022/08/21 06:42:17;;;;;;;3.25;2.72;;;18.50;99.90;;;;;;4972678;28;20172;-64
2022/08/21 06:44:43;;;;;;;4.53;2.88;;;18.50;99.90;;;;;;5007227;28;20258;-66
2022/08/21 06:47:09;;;;;;;3.80;2.50;;;18.60;99.90;;;;;;4976127;28;20265;-65
2022/08/21 06:49:38;;;;;;;5.30;2.67;;;18.70;99.90;;;;;;4973054;28;20220;-68
2022/08/21 06:52:09;;;;;;;4.50;2.70;;;18.70;99.90;;;;;;4989683;28;20187;-68
2022/08/21 06:54:34;;;;;;;5.00;2.60;;;18.80;99.90;;;;;;4969666;28;20271;-66
2022/08/21 06:57:00;;;;;;;5.07;2.67;;;18.80;99.90;;;;;;4962004;28;20292;-66
2022/08/21 06:59:26;;;;;;;3.15;2.35;;;18.90;99.90;;;;;;4968303;28;20180;-66
2022/08/21 07:01:53;;;;;;;7.22;2.85;;;19.00;99.90;;;;;;4975623;28;20274;-66
2022/08/21 07:04:20;;;;;;;6.72;2.30;;;19.00;99.90;;;;;;4973937;28;20203;-66
2022/08/21 07:06:45;;;;;;;3.55;2.28;;;19.10;99.90;;;;;;4993987;28;20164;-67
2022/08/21 07:09:11;;;;;;;4.07;2.28;;;19.10;99.90;;;;;;4977962;28;20261;-67
2022/08/21 07:11:37;;;;;;;3.30;2.13;;;19.20;99.90;;;;;;4978083;28;20203;-67
2022/08/21 07:14:04;;;;;;;4.03;2.22;;;19.20;99.90;;;;;;4968204;28;20327;-67
2022/08/21 07:16:32;;;;;;;2.95;1.90;;;19.30;99.90;;;;;;4972707;28;20201;-66
2022/08/21 07:18:57;;;;;;;5.13;1.95;;;19.30;99.90;;;;;;4977516;28;20191;-66
2022/08/21 07:21:23;;;;;;;4.57;1.95;;;19.30;99.90;;;;;;4977897;28;20196;-66
2022/08/21 07:23:51;;;;;;;4.20;2.10;;;19.40;99.90;;;;;;4977144;28;20207;-67
2022/08/21 07:26:21;;;;;;;7.80;4.47;;;19.40;99.90;;;;;;4977380;28;20188;-71
2022/08/21 07:28:50;;;;;;;5.13;2.63;;;19.50;99.90;;;;;;4998374;28;20207;-71
2022/08/21 07:31:19;;;;;;;3.05;2.25;;;19.60;99.90;;;;;;4998567;28;20267;-69
2022/08/21 07:33:45;;;;;;;5.95;2.65;;;19.70;99.90;;;;;;4976749;28;20194;-72
2022/08/21 07:36:11;;;;;;;6.88;2.17;;;19.70;99.90;;;;;;4978227;28;20169;-72
2022/08/21 07:38:37;;;;;;;3.63;2.15;;;19.80;99.90;;;;;;4977551;28;20172;-73
2022/08/21 07:41:12;;;;;;;5.13;1.98;;;19.90;99.90;;;;;;4978400;28;20195;-72
2022/08/21 07:43:38;;;;;;;3.22;1.70;;;20.00;99.90;;;;;;4978237;28;20195;-72
2022/08/21 07:46:04;;;;;;;3.70;1.85;;;20.00;99.90;;;;;;4976026;28;20184;-72
2022/08/21 07:48:29;;;;;;;4.07;2.00;;;20.10;99.90;;;;;;4974453;28;20190;-71
2022/08/21 07:50:55;;;;;;;4.07;1.77;;;20.20;99.90;;;;;;4972554;28;20238;-73
2022/08/21 07:53:21;;;;;;;3.60;1.63;;;20.30;99.90;;;;;;4993549;28;20235;-70
2022/08/21 07:55:47;;;;;;;2.75;1.60;;;20.40;99.90;;;;;;4977806;28;20183;-72
2022/08/21 07:58:15;;;;;;;2.42;1.77;;;20.40;99.90;;;;;;4979959;28;20195;-73
2022/08/21 08:00:43;;;;;;;3.10;1.58;;;20.50;99.90;;;;;;4977863;28;20200;-72
2022/08/21 08:03:14;;;;;;;4.93;2.10;;;20.60;99.90;;;;;;4967464;28;20192;-73
2022/08/21 08:05:39;;;;;;;3.05;1.52;;;20.70;99.90;;;;;;4975985;28;20180;-72
2022/08/21 08:08:05;;;;;;;4.07;1.83;;;20.80;99.90;;;;;;4993159;28;20463;-72
2022/08/21 08:10:31;;;;;;;3.80;1.77;;;20.90;99.90;;;;;;4993618;28;20184;-72
2022/08/21 08:12:57;;;;;;;2.80;1.70;;;20.90;99.90;;;;;;4981414;28;20188;-71
2022/08/21 08:15:25;;;;;;;4.45;2.35;;;21.10;99.90;;;;;;4970102;28;20267;-72
2022/08/21 08:17:51;;;;;;;5.57;2.50;;;21.10;99.90;;;;;;4972848;28;20196;-73
2022/08/21 08:20:18;;;;;;;3.97;2.10;;;21.20;99.90;;;;;;4975607;28;20205;-72
2022/08/21 08:22:49;;;;;;;5.07;1.90;;;21.30;99.90;;;;;;4970975;28;20242;-73
2022/08/21 08:25:17;;;;;;;3.63;1.55;;;21.40;99.90;;;;;;4979475;28;20179;-72
2022/08/21 08:27:43;;;;;;;5.53;1.90;;;21.40;99.90;;;;;;4976466;28;20614;-72
2022/08/21 08:30:13;;;;;;;2.58;1.50;;;21.50;99.90;;;;;;4973174;28;20177;-72
2022/08/21 08:32:40;;;;;;;4.05;1.70;;;21.50;99.90;;;;;;4961156;28;20204;-69
2022/08/21 08:35:11;;;;;;;4.32;1.70;;;21.60;99.90;;;;;;4971767;28;20311;-69
2022/08/21 08:37:39;;;;;;;2.55;1.23;;;21.70;99.90;;;;;;4975040;28;20200;-67
2022/08/21 08:40:31;;;;;;;3.75;1.63;;;21.80;99.90;;;;;;4985806;28;20176;-68
2022/08/21 08:42:59;;;;;;;2.80;1.40;;;21.90;99.90;;;;;;4976545;28;20172;-68
2022/08/21 08:45:32;;;;;;;4.10;1.90;;;21.90;99.90;;;;;;4992355;28;20202;-69
2022/08/21 08:48:03;;;;;;;3.50;1.73;;;22.00;99.90;;;;;;4993265;28;20216;-67
2022/08/21 08:50:32;;;;;;;4.05;1.83;;;22.10;99.90;;;;;;4970853;28;20311;-68
2022/08/21 08:53:03;;;;;;;2.63;1.48;;;22.10;99.90;;;;;;4971492;28;20180;-69
2022/08/21 08:55:44;;;;;;;2.65;1.60;;;22.20;99.90;;;;;;4982150;28;20187;-71
2022/08/21 08:58:37;;;;;;;3.17;1.50;;;22.30;99.90;;;;;;4962297;28;20192;-72
2022/08/21 09:01:11;;;;;;;3.35;1.50;;;22.40;99.90;;;;;;4967941;28;20267;-72
2022/08/21 09:03:41;;;;;;;4.22;1.40;;;22.50;99.90;;;;;;4971208;28;20282;-71
2022/08/21 09:06:35;;;;;;;3.88;1.73;;;22.60;99.90;;;;;;4974411;28;20182;-71
2022/08/21 09:09:21;;;;;;;2.58;1.33;;;22.60;99.90;;;;;;4973002;28;20202;-71
2022/08/21 09:12:12;;;;;;;2.85;1.45;;;22.70;99.90;;;;;;4968923;28;20206;-72
2022/08/21 09:14:43;;;;;;;3.63;1.40;;;22.80;99.90;;;;;;4969817;28;20439;-71
2022/08/21 09:17:47;;;;;;;2.58;1.40;;;22.90;99.90;;;;;;4981849;28;20192;-72
2022/08/21 09:20:32;;;;;;;2.92;1.38;;;23.00;99.90;;;;;;4978144;28;20230;-72
2022/08/21 09:23:03;;;;;;;2.20;1.42;;;23.20;99.90;;;;;;4966531;28;20177;-71
2022/08/21 09:25:39;;;;;;;4.05;1.23;;;23.20;99.90;;;;;;4984420;28;20310;-73
2022/08/21 09:28:08;;;;;;;2.58;1.38;;;23.30;99.90;;;;;;4985321;28;20199;-72
2022/08/21 09:30:34;;;;;;;6.28;1.48;;;23.40;99.90;;;;;;4974010;28;20267;-72
2022/08/21 09:33:00;;;;;;;3.25;1.33;;;23.50;99.90;;;;;;4972638;28;20195;-71
2022/08/21 09:35:28;;;;;;;2.72;1.50;;;23.50;99.90;;;;;;4981669;28;20184;-72
2022/08/21 09:37:57;;;;;;;2.55;1.30;;;23.60;99.90;;;;;;4964254;28;20275;-71
2022/08/21 09:40:40;;;;;;;2.67;1.30;;;23.70;99.90;;;;;;4968572;28;20206;-71
2022/08/21 09:43:16;;;;;;;2.70;1.27;;;23.90;99.90;;;;;;4972110;28;20226;-72
2022/08/21 09:45:44;;;;;;;3.22;1.20;;;24.00;99.90;;;;;;4965734;28;20184;-71
2022/08/21 09:48:27;;;;;;;2.42;1.30;;;24.10;99.90;;;;;;4992141;28;20350;-72
2022/08/21 09:50:53;;;;;;;2.58;1.38;;;24.20;99.90;;;;;;5003224;28;20242;-71
2022/08/21 09:53:24;;;;;;;5.15;1.55;;;24.30;99.90;;;;;;4986852;28;20233;-71
2022/08/21 09:58:37;;;;;;;4.38;2.00;;;24.50;99.90;;;;;;4973629;28;20385;-70
2022/08/21 10:01:12;;;;;;;3.50;1.40;;;24.60;99.90;;;;;;4960339;28;20229;-71
2022/08/21 10:03:40;;;;;;;4.93;1.80;;;24.70;99.90;;;;;;4991069;28;20180;-70
2022/08/21 10:06:09;;;;;;;4.10;1.55;;;24.80;99.90;;;;;;4974886;28;20210;-72
2022/08/21 10:08:40;;;;;;;2.13;1.17;;;24.90;99.90;;;;;;4975390;28;20190;-72
2022/08/21 10:11:11;;;;;;;3.05;1.50;;;24.90;99.90;;;;;;4975510;28;20181;-72
2022/08/21 10:13:48;;;;;;;2.53;1.42;;;25.20;99.90;;;;;;4976276;28;20203;-72
2022/08/21 10:16:17;;;;;;;3.88;1.40;;;25.50;99.80;;;;;;4972392;28;20182;-71
2022/08/21 10:19:01;;;;;;;3.60;1.52;;;26.10;98.40;;;;;;4990363;28;20200;-69
2022/08/21 10:21:48;;;;;;;4.35;1.45;;;26.70;97.30;;;;;;4975979;28;20172;-69
2022/08/21 10:24:36;;;;;;;2.35;1.10;;;27.30;96.10;;;;;;4974827;28;20183;-69
2022/08/21 10:27:39;;;;;;;2.50;1.33;;;27.60;95.50;;;;;;4975694;28;20263;-69
2022/08/21 10:30:33;;;;;;;2.08;1.00;;;28.10;94.20;;;;;;4973190;28;20194;-73
2022/08/21 10:33:15;;;;;;;3.45;1.35;;;28.50;94.10;;;;;;4972218;28;20265;-70
2022/08/21 10:35:55;;;;;;;2.40;1.20;;;29.00;93.40;;;;;;4977182;28;20207;-68
2022/08/21 10:38:41;;;;;;;3.45;1.45;;;29.30;92.80;;;;;;4986869;28;20200;-70
2022/08/21 10:41:26;;;;;;;2.60;1.40;;;29.70;91.80;;;;;;4972485;28;20180;-69
2022/08/21 10:44:09;;;;;;;2.05;1.38;;;30.00;91.80;;;;;;4988867;28;20181;-69
2022/08/21 10:46:47;;;;;;;2.53;1.15;;;30.20;89.50;;;;;;4959845;28;20232;-70
2022/08/21 10:49:33;;;;;;;2.05;1.17;;;30.40;87.50;;;;;;4978077;28;20244;-69
2022/08/21 10:52:36;;;;;;;3.25;1.00;;;30.50;85.30;;;;;;4973033;28;20286;-70
2022/08/21 10:55:20;;;;;;;2.30;1.23;;;30.60;85.90;;;;;;4975691;28;20262;-70
2022/08/21 10:57:45;;;;;;;3.03;1.23;;;30.70;78.00;;;;;;4974622;28;20231;-69
2022/08/21 11:00:26;;;;;;;2.53;1.20;;;30.70;82.50;;;;;;4976313;28;20393;-70
2022/08/21 11:03:14;;;;;;;2.70;1.55;;;30.70;77.80;;;;;;4976225;28;20242;-65
2022/08/21 11:05:52;;;;;;;2.85;1.50;;;30.70;77.80;;;;;;4971519;28;20216;-69
2022/08/21 11:08:22;;;;;;;2.80;1.13;;;30.70;74.50;;;;;;4976502;28;20176;-70
2022/08/21 11:11:00;;;;;;;1.50;1.00;;;30.60;76.80;;;;;;4976154;28;20183;-70
2022/08/21 11:13:44;;;;;;;3.30;1.35;;;30.60;77.20;;;;;;4977907;28;20274;-70
2022/08/21 11:16:25;;;;;;;1.38;1.10;;;30.60;76.10;;;;;;4992890;28;20195;-70
2022/08/21 11:19:06;;;;;;;2.20;1.27;;;30.60;77.90;;;;;;4976416;28;20203;-72
2022/08/21 11:21:43;;;;;;;2.92;1.33;;;30.50;74.90;;;;;;4962288;28;20172;-71
2022/08/21 11:24:30;;;;;;;2.53;1.38;;;30.50;75.10;;;;;;4975847;28;20172;-71
2022/08/21 11:27:20;;;;;;;2.13;1.10;;;30.40;68.60;;;;;;4986661;28;20199;-71
2022/08/21 11:29:54;;;;;;;3.63;1.40;;;30.40;70.90;;;;;;4976446;28;20203;-71
2022/08/21 11:32:43;;;;;;;2.78;1.30;;;30.40;73.10;;;;;;4992675;28;20211;-71
2022/08/21 11:35:30;;;;;;;2.38;1.25;;;30.50;71.10;;;;;;4975920;28;20334;-71
2022/08/21 11:38:21;;;;;;;1.60;1.00;;;30.50;71.90;;;;;;4992899;28;20282;-71
2022/08/21 11:41:24;;;;;;;1.75;1.08;;;30.60;72.30;;;;;;4986331;28;20207;-71
2022/08/21 11:44:08;;;;;;;2.22;1.20;;;30.60;69.90;;;;;;4976330;28;20194;-70
2022/08/21 11:46:46;;;;;;;2.13;1.20;;;30.60;69.70;;;;;;4976285;28;20203;-71
2022/08/21 11:49:30;;;;;;;3.90;1.45;;;30.60;72.70;;;;;;4979958;28;20179;-71
2022/08/21 11:52:09;;;;;;;2.28;1.20;;;30.70;71.10;;;;;;4975776;28;20230;-71
2022/08/21 11:54:44;;;;;;;2.42;1.08;;;30.70;69.80;;;;;;4992055;28;20203;-71
2022/08/21 11:57:28;;;;;;;2.53;1.20;;;30.60;69.20;;;;;;4992102;28;20231;-70
2022/08/21 12:00:25;;;;;;;2.30;1.30;;;30.70;66.70;;;;;;4974653;28;20187;-71
2022/08/21 12:02:55;;;;;;;1.75;1.17;;;30.70;68.60;;;;;;4972798;28;20269;-71
2022/08/21 12:05:37;;;;;;;3.17;1.20;;;30.70;68.20;;;;;;4992557;28;20182;-70
2022/08/21 12:08:25;;;;;;;2.25;1.17;;;30.80;65.40;;;;;;4967063;28;20207;-71
2022/08/21 12:11:05;;;;;;;1.52;1.00;;;30.90;67.90;;;;;;4960453;28;20226;-71
2022/08/21 12:13:34;;;;;;;2.83;1.23;;;31.00;68.80;;;;;;4990889;28;20263;-69
2022/08/21 12:16:09;;;;;;;2.22;1.10;;;31.20;68.90;;;;;;4992650;28;20183;-71
2022/08/21 12:18:39;;;;;;;2.15;1.23;;;31.30;63.50;;;;;;4974124;28;20178;-71
2022/08/21 12:21:27;;;;;;;2.85;1.08;;;31.40;65.70;;;;;;4970850;28;20191;-68
2022/08/21 12:24:16;;;;;;;3.63;2.15;;;31.50;64.50;;;;;;4990096;28;20187;-67
2022/08/21 12:26:52;;;;;;;2.40;1.80;;;31.50;63.70;;;;;;4971197;28;20187;-70
2022/08/21 12:29:20;;;;;;;1.75;1.20;;;31.60;63.40;;;;;;4963504;28;20194;-70
2022/08/21 12:31:53;;;;;;;3.53;1.45;;;31.60;63.80;;;;;;4974771;28;20207;-70
2022/08/21 12:34:28;;;;;;;2.42;1.10;;;31.70;63.30;;;;;;4991385;28;20251;-71
2022/08/21 12:37:03;;;;;;;2.58;1.20;;;31.70;63.00;;;;;;4987189;28;20336;-71
2022/08/21 12:39:32;;;;;;;1.98;1.00;;;31.80;62.20;;;;;;4967714;28;20179;-72
2022/08/21 12:42:20;;;;;;;2.35;1.10;;;31.90;62.50;;;;;;4979770;28;20177;-72
2022/08/21 12:44:59;;;;;;;1.98;1.10;;;31.90;60.50;;;;;;4973753;28;20171;-73
2022/08/21 12:47:44;;;;;;;1.58;1.10;;;31.90;62.10;;;;;;4968344;28;20233;-74
2022/08/21 12:50:16;;;;;;;1.30;0.90;;;31.90;60.80;;;;;;4973075;28;20209;-72
2022/08/21 12:52:59;;;;;;;2.03;1.00;;;31.90;60.00;;;;;;4981460;28;20194;-70
2022/08/21 12:55:31;;;;;;;1.35;1.00;;;31.90;59.10;;;;;;4971645;28;20187;-70
2022/08/21 12:57:57;;;;;;;2.05;1.10;;;32.00;59.10;;;;;;4968916;28;20282;-70
2022/08/21 13:00:25;;;;;;;1.77;1.20;;;32.00;60.20;;;;;;4960102;28;20384;-71
2022/08/21 13:02:52;;;;;;;2.22;1.30;;;31.90;59.50;;;;;;4991354;28;20206;-72
2022/08/21 13:05:37;;;;;;;1.80;1.23;;;31.70;58.70;;;;;;4973010;28;20255;-71
2022/08/21 13:08:12;;;;;;;2.67;1.00;;;31.60;58.00;;;;;;4990381;28;20268;-72
2022/08/21 13:10:43;;;;;;;1.73;1.30;;;31.50;58.30;;;;;;4972548;28;20199;-72